sensor_id;sensor_type;location;lat;lon;timestamp;P1;durP1;ratioP1;P2;durP2;ratioP2
13611;SDS011;6877;51.436;6.774;2023-06-04T00:02:22;3.95;;;2.40;;
13611;SDS011;6877;51.436;6.774;2023-06-04T00:04:49;4.32;;;2.60;;
13611;SDS011;6877;51.436;6.774;2023-06-04T00:07:15;3.38;;;2.25;;
13611;SDS011;6877;51.436;6.774;2023-06-04T00:09:42;3.75;;;2.33;;
13611;SDS011;6877;51.436;6.774;2023-06-04T00:12:08;2.95;;;2.30;;
13611;SDS011;6877;51.436;6.774;2023-06-04T00:14:35;3.95;;;2.92;;
13611;SDS011;6877;51.436;6.774;2023-06-04T00:17:01;4.55;;;2.78;;
13611;SDS011;6877;51.436;6.774;2023-06-04T00:19:28;3.45;;;2.28;;
13611;SDS011;6877;51.436;6.774;2023-06-04T00:21:54;3.47;;;2.17;;
13611;SDS011;6877;51.436;6.774;2023-06-04T00:24:21;3.30;;;2.67;;
13611;SDS011;6877;51.436;6.774;2023-06-04T00:26:48;5.85;;;2.47;;
13611;SDS011;6877;51.436;6.774;2023-06-04T00:29:14;3.28;;;2.58;;
13611;SDS011;6877;51.436;6.774;2023-06-04T00:31:41;3.75;;;2.50;;
13611;SDS011;6877;51.436;6.774;2023-06-04T00:34:07;3.15;;;2.13;;
13611;SDS011;6877;51.436;6.774;2023-06-04T00:36:34;3.05;;;2.17;;
13611;SDS011;6877;51.436;6.774;2023-06-04T00:39:01;4.88;;;3.10;;
13611;SDS011;6877;51.436;6.774;2023-06-04T00:41:27;3.15;;;2.38;;
13611;SDS011;6877;51.436;6.774;2023-06-04T00:43:54;3.45;;;2.35;;
13611;SDS011;6877;51.436;6.774;2023-06-04T00:46:27;4.07;;;2.38;;
13611;SDS011;6877;51.436;6.774;2023-06-04T00:48:54;2.78;;;2.22;;
13611;SDS011;6877;51.436;6.774;2023-06-04T00:51:21;2.88;;;2.28;;
13611;SDS011;6877;51.436;6.774;2023-06-04T00:53:48;3.83;;;2.35;;
13611;SDS011;6877;51.436;6.774;2023-06-04T00:56:16;3.03;;;2.40;;
13611;SDS011;6877;51.436;6.774;2023-06-04T00:58:43;3.83;;;2.42;;
13611;SDS011;6877;51.436;6.774;2023-06-04T01:03:49;4.90;;;2.60;;
13611;SDS011;6877;51.436;6.774;2023-06-04T01:08:55;2.40;;;2.20;;
13611;SDS011;6877;51.436;6.774;2023-06-04T01:11:31;7.13;;;2.97;;
13611;SDS011;6877;51.436;6.774;2023-06-04T01:13:59;2.47;;;2.20;;
13611;SDS011;6877;51.436;6.774;2023-06-04T01:16:26;2.75;;;2.13;;
13611;SDS011;6877;51.436;6.774;2023-06-04T01:18:57;4.65;;;2.50;;
13611;SDS011;6877;51.436;6.774;2023-06-04T01:21:27;2.60;;;2.22;;
13611;SDS011;6877;51.436;6.774;2023-06-04T01:23:56;6.47;;;2.38;;
13611;SDS011;6877;51.436;6.774;2023-06-04T01:26:30;6.28;;;2.45;;
13611;SDS011;6877;51.436;6.774;2023-06-04T01:28:57;3.90;;;2.13;;
13611;SDS011;6877;51.436;6.774;2023-06-04T01:31:25;4.25;;;1.98;;
13611;SDS011;6877;51.436;6.774;2023-06-04T01:33:52;3.92;;;2.17;;
13611;SDS011;6877;51.436;6.774;2023-06-04T01:36:20;3.38;;;2.20;;
13611;SDS011;6877;51.436;6.774;2023-06-04T01:38:46;3.78;;;2.70;;
13611;SDS011;6877;51.436;6.774;2023-06-04T01:41:13;2.70;;;2.35;;
13611;SDS011;6877;51.436;6.774;2023-06-04T01:43:40;2.92;;;2.05;;
13611;SDS011;6877;51.436;6.774;2023-06-04T01:46:06;4.45;;;2.25;;
13611;SDS011;6877;51.436;6.774;2023-06-04T01:48:33;3.50;;;2.40;;
13611;SDS011;6877;51.436;6.774;2023-06-04T01:51:00;3.63;;;2.13;;
13611;SDS011;6877;51.436;6.774;2023-06-04T01:53:27;2.33;;;2.13;;
13611;SDS011;6877;51.436;6.774;2023-06-04T01:55:53;4.97;;;2.70;;
13611;SDS011;6877;51.436;6.774;2023-06-04T01:58:20;7.18;;;2.85;;
13611;SDS011;6877;51.436;6.774;2023-06-04T02:00:53;3.30;;;2.30;;
13611;SDS011;6877;51.436;6.774;2023-06-04T02:03:21;3.50;;;2.55;;
13611;SDS011;6877;51.436;6.774;2023-06-04T02:05:51;6.93;;;2.70;;
13611;SDS011;6877;51.436;6.774;2023-06-04T02:08:18;7.35;;;2.42;;
13611;SDS011;6877;51.436;6.774;2023-06-04T02:10:47;9.93;;;2.60;;
13611;SDS011;6877;51.436;6.774;2023-06-04T02:13:15;4.60;;;2.65;;
13611;SDS011;6877;51.436;6.774;2023-06-04T02:15:42;4.95;;;3.10;;
13611;SDS011;6877;51.436;6.774;2023-06-04T02:18:16;11.05;;;2.53;;
13611;SDS011;6877;51.436;6.774;2023-06-04T02:20:51;4.15;;;2.95;;
13611;SDS011;6877;51.436;6.774;2023-06-04T02:23:22;5.35;;;2.63;;
13611;SDS011;6877;51.436;6.774;2023-06-04T02:25:49;8.80;;;3.05;;
13611;SDS011;6877;51.436;6.774;2023-06-04T02:28:16;4.20;;;2.47;;
13611;SDS011;6877;51.436;6.774;2023-06-04T02:30:44;10.20;;;3.72;;
13611;SDS011;6877;51.436;6.774;2023-06-04T02:33:12;5.13;;;2.47;;
13611;SDS011;6877;51.436;6.774;2023-06-04T02:35:39;5.55;;;2.70;;
13611;SDS011;6877;51.436;6.774;2023-06-04T02:38:07;5.15;;;2.53;;
13611;SDS011;6877;51.436;6.774;2023-06-04T02:40:33;4.30;;;2.60;;
13611;SDS011;6877;51.436;6.774;2023-06-04T02:43:00;3.60;;;2.60;;
13611;SDS011;6877;51.436;6.774;2023-06-04T02:45:26;3.90;;;3.38;;
13611;SDS011;6877;51.436;6.774;2023-06-04T02:47:55;4.07;;;2.95;;
13611;SDS011;6877;51.436;6.774;2023-06-04T02:50:21;4.82;;;2.83;;
13611;SDS011;6877;51.436;6.774;2023-06-04T02:52:48;4.85;;;2.65;;
13611;SDS011;6877;51.436;6.774;2023-06-04T02:55:14;7.35;;;2.53;;
13611;SDS011;6877;51.436;6.774;2023-06-04T02:57:43;4.00;;;2.38;;
13611;SDS011;6877;51.436;6.774;2023-06-04T03:00:10;3.22;;;2.42;;
13611;SDS011;6877;51.436;6.774;2023-06-04T03:02:44;5.93;;;3.33;;
13611;SDS011;6877;51.436;6.774;2023-06-04T03:05:13;5.32;;;2.65;;
13611;SDS011;6877;51.436;6.774;2023-06-04T03:07:41;4.55;;;2.70;;
13611;SDS011;6877;51.436;6.774;2023-06-04T03:10:09;6.55;;;2.70;;
13611;SDS011;6877;51.436;6.774;2023-06-04T03:12:37;5.20;;;3.40;;
13611;SDS011;6877;51.436;6.774;2023-06-04T03:15:03;6.50;;;2.97;;
13611;SDS011;6877;51.436;6.774;2023-06-04T03:17:30;5.90;;;2.95;;
13611;SDS011;6877;51.436;6.774;2023-06-04T03:19:58;3.40;;;2.60;;
13611;SDS011;6877;51.436;6.774;2023-06-04T03:22:24;4.95;;;2.50;;
13611;SDS011;6877;51.436;6.774;2023-06-04T03:24:51;3.75;;;2.90;;
13611;SDS011;6877;51.436;6.774;2023-06-04T03:27:18;5.15;;;2.90;;
13611;SDS011;6877;51.436;6.774;2023-06-04T03:29:46;3.38;;;2.58;;
13611;SDS011;6877;51.436;6.774;2023-06-04T03:32:14;5.28;;;2.72;;
13611;SDS011;6877;51.436;6.774;2023-06-04T03:34:42;5.00;;;2.60;;
13611;SDS011;6877;51.436;6.774;2023-06-04T03:37:09;4.45;;;2.60;;
13611;SDS011;6877;51.436;6.774;2023-06-04T03:39:36;2.60;;;2.17;;
13611;SDS011;6877;51.436;6.774;2023-06-04T03:42:02;3.80;;;2.58;;
13611;SDS011;6877;51.436;6.774;2023-06-04T03:44:29;4.18;;;3.05;;
13611;SDS011;6877;51.436;6.774;2023-06-04T03:46:56;4.47;;;3.03;;
13611;SDS011;6877;51.436;6.774;2023-06-04T03:49:22;4.13;;;2.97;;
13611;SDS011;6877;51.436;6.774;2023-06-04T03:51:49;10.27;;;2.60;;
13611;SDS011;6877;51.436;6.774;2023-06-04T03:54:15;10.93;;;3.20;;
13611;SDS011;6877;51.436;6.774;2023-06-04T03:56:45;5.22;;;3.15;;
13611;SDS011;6877;51.436;6.774;2023-06-04T03:59:12;4.05;;;2.65;;
13611;SDS011;6877;51.436;6.774;2023-06-04T04:01:39;6.32;;;3.03;;
13611;SDS011;6877;51.436;6.774;2023-06-04T04:04:06;7.10;;;2.92;;
13611;SDS011;6877;51.436;6.774;2023-06-04T04:06:32;6.10;;;3.13;;
13611;SDS011;6877;51.436;6.774;2023-06-04T04:08:59;6.43;;;2.97;;
13611;SDS011;6877;51.436;6.774;2023-06-04T04:11:25;5.35;;;2.97;;
13611;SDS011;6877;51.436;6.774;2023-06-04T04:13:52;15.00;;;3.85;;
13611;SDS011;6877;51.436;6.774;2023-06-04T04:16:19;6.43;;;3.13;;
13611;SDS011;6877;51.436;6.774;2023-06-04T04:18:46;5.60;;;3.03;;
13611;SDS011;6877;51.436;6.774;2023-06-04T04:21:12;4.30;;;3.03;;
13611;SDS011;6877;51.436;6.774;2023-06-04T04:23:39;9.20;;;3.70;;
13611;SDS011;6877;51.436;6.774;2023-06-04T04:26:07;3.70;;;3.08;;
13611;SDS011;6877;51.436;6.774;2023-06-04T04:28:37;10.10;;;3.45;;
13611;SDS011;6877;51.436;6.774;2023-06-04T04:31:04;3.92;;;2.63;;
13611;SDS011;6877;51.436;6.774;2023-06-04T04:33:30;8.43;;;3.97;;
13611;SDS011;6877;51.436;6.774;2023-06-04T04:36:05;6.57;;;3.33;;
13611;SDS011;6877;51.436;6.774;2023-06-04T04:38:38;5.25;;;3.13;;
13611;SDS011;6877;51.436;6.774;2023-06-04T04:41:06;5.85;;;2.95;;
13611;SDS011;6877;51.436;6.774;2023-06-04T04:43:34;4.70;;;2.70;;
13611;SDS011;6877;51.436;6.774;2023-06-04T04:46:01;4.22;;;2.97;;
13611;SDS011;6877;51.436;6.774;2023-06-04T04:48:28;4.82;;;3.17;;
13611;SDS011;6877;51.436;6.774;2023-06-04T04:50:55;4.38;;;3.50;;
13611;SDS011;6877;51.436;6.774;2023-06-04T04:53:25;5.63;;;3.00;;
13611;SDS011;6877;51.436;6.774;2023-06-04T04:55:59;12.18;;;3.15;;
13611;SDS011;6877;51.436;6.774;2023-06-04T04:58:25;3.72;;;2.88;;
13611;SDS011;6877;51.436;6.774;2023-06-04T05:00:52;3.97;;;2.85;;
13611;SDS011;6877;51.436;6.774;2023-06-04T05:03:18;5.22;;;2.75;;
13611;SDS011;6877;51.436;6.774;2023-06-04T05:05:45;5.20;;;3.22;;
13611;SDS011;6877;51.436;6.774;2023-06-04T05:08:13;4.60;;;2.83;;
13611;SDS011;6877;51.436;6.774;2023-06-04T05:10:40;6.05;;;3.22;;
13611;SDS011;6877;51.436;6.774;2023-06-04T05:13:07;4.05;;;3.00;;
13611;SDS011;6877;51.436;6.774;2023-06-04T05:15:33;5.03;;;3.10;;
13611;SDS011;6877;51.436;6.774;2023-06-04T05:18:00;4.10;;;2.45;;
13611;SDS011;6877;51.436;6.774;2023-06-04T05:20:29;5.50;;;2.88;;
13611;SDS011;6877;51.436;6.774;2023-06-04T05:22:56;3.45;;;3.00;;
13611;SDS011;6877;51.436;6.774;2023-06-04T05:25:23;4.38;;;2.80;;
13611;SDS011;6877;51.436;6.774;2023-06-04T05:27:49;5.70;;;2.63;;
13611;SDS011;6877;51.436;6.774;2023-06-04T05:30:16;4.90;;;2.83;;
13611;SDS011;6877;51.436;6.774;2023-06-04T05:32:43;3.97;;;2.75;;
13611;SDS011;6877;51.436;6.774;2023-06-04T05:35:10;3.42;;;2.80;;
13611;SDS011;6877;51.436;6.774;2023-06-04T05:37:37;3.15;;;2.30;;
13611;SDS011;6877;51.436;6.774;2023-06-04T05:40:06;3.22;;;2.35;;
13611;SDS011;6877;51.436;6.774;2023-06-04T05:42:33;5.38;;;2.97;;
13611;SDS011;6877;51.436;6.774;2023-06-04T05:44:59;3.20;;;2.28;;
13611;SDS011;6877;51.436;6.774;2023-06-04T05:47:27;8.55;;;2.70;;
13611;SDS011;6877;51.436;6.774;2023-06-04T05:49:55;4.35;;;2.70;;
13611;SDS011;6877;51.436;6.774;2023-06-04T05:52:21;4.70;;;2.55;;
13611;SDS011;6877;51.436;6.774;2023-06-04T05:54:48;7.78;;;3.58;;
13611;SDS011;6877;51.436;6.774;2023-06-04T05:57:15;3.55;;;2.50;;
13611;SDS011;6877;51.436;6.774;2023-06-04T05:59:41;6.60;;;3.25;;
13611;SDS011;6877;51.436;6.774;2023-06-04T06:02:07;5.18;;;2.85;;
13611;SDS011;6877;51.436;6.774;2023-06-04T06:04:34;9.55;;;2.63;;
13611;SDS011;6877;51.436;6.774;2023-06-04T06:07:04;5.40;;;3.40;;
13611;SDS011;6877;51.436;6.774;2023-06-04T06:09:31;6.35;;;2.63;;
13611;SDS011;6877;51.436;6.774;2023-06-04T06:11:57;5.80;;;2.90;;
13611;SDS011;6877;51.436;6.774;2023-06-04T06:14:24;6.63;;;3.15;;
13611;SDS011;6877;51.436;6.774;2023-06-04T06:16:50;4.00;;;2.65;;
13611;SDS011;6877;51.436;6.774;2023-06-04T06:19:17;5.75;;;3.10;;
13611;SDS011;6877;51.436;6.774;2023-06-04T06:21:49;4.55;;;2.58;;
13611;SDS011;6877;51.436;6.774;2023-06-04T06:24:15;4.22;;;2.55;;
13611;SDS011;6877;51.436;6.774;2023-06-04T06:26:43;4.20;;;2.78;;
13611;SDS011;6877;51.436;6.774;2023-06-04T06:29:09;7.72;;;3.45;;
13611;SDS011;6877;51.436;6.774;2023-06-04T06:31:41;5.85;;;3.08;;
13611;SDS011;6877;51.436;6.774;2023-06-04T06:34:07;4.07;;;2.50;;
13611;SDS011;6877;51.436;6.774;2023-06-04T06:36:39;3.40;;;2.58;;
13611;SDS011;6877;51.436;6.774;2023-06-04T06:39:05;5.05;;;3.05;;
13611;SDS011;6877;51.436;6.774;2023-06-04T06:41:32;3.75;;;2.78;;
13611;SDS011;6877;51.436;6.774;2023-06-04T06:44:04;2.67;;;2.42;;
13611;SDS011;6877;51.436;6.774;2023-06-04T06:46:31;3.60;;;2.45;;
13611;SDS011;6877;51.436;6.774;2023-06-04T06:48:57;4.03;;;2.50;;
13611;SDS011;6877;51.436;6.774;2023-06-04T06:51:24;4.93;;;2.55;;
13611;SDS011;6877;51.436;6.774;2023-06-04T06:53:50;4.97;;;3.10;;
13611;SDS011;6877;51.436;6.774;2023-06-04T06:56:20;7.78;;;3.22;;
13611;SDS011;6877;51.436;6.774;2023-06-04T06:58:46;6.68;;;2.83;;
13611;SDS011;6877;51.436;6.774;2023-06-04T07:01:13;5.22;;;2.60;;
13611;SDS011;6877;51.436;6.774;2023-06-04T07:03:39;3.80;;;2.38;;
13611;SDS011;6877;51.436;6.774;2023-06-04T07:06:06;6.35;;;2.60;;
13611;SDS011;6877;51.436;6.774;2023-06-04T07:08:32;3.75;;;2.47;;
13611;SDS011;6877;51.436;6.774;2023-06-04T07:10:59;6.63;;;2.47;;
13611;SDS011;6877;51.436;6.774;2023-06-04T07:13:27;6.57;;;2.33;;
13611;SDS011;6877;51.436;6.774;2023-06-04T07:15:54;6.57;;;2.70;;
13611;SDS011;6877;51.436;6.774;2023-06-04T07:18:21;4.57;;;2.45;;
13611;SDS011;6877;51.436;6.774;2023-06-04T07:20:47;6.13;;;3.13;;
13611;SDS011;6877;51.436;6.774;2023-06-04T07:23:19;5.80;;;2.83;;
13611;SDS011;6877;51.436;6.774;2023-06-04T07:25:45;8.73;;;3.55;;
13611;SDS011;6877;51.436;6.774;2023-06-04T07:28:12;3.67;;;2.33;;
13611;SDS011;6877;51.436;6.774;2023-06-04T07:30:45;6.72;;;2.40;;
13611;SDS011;6877;51.436;6.774;2023-06-04T07:33:16;3.28;;;2.72;;
13611;SDS011;6877;51.436;6.774;2023-06-04T07:35:49;7.60;;;2.45;;
13611;SDS011;6877;51.436;6.774;2023-06-04T07:38:15;2.33;;;1.85;;
13611;SDS011;6877;51.436;6.774;2023-06-04T07:40:45;4.15;;;2.30;;
13611;SDS011;6877;51.436;6.774;2023-06-04T07:43:11;4.35;;;2.20;;
13611;SDS011;6877;51.436;6.774;2023-06-04T07:45:43;5.68;;;2.00;;
13611;SDS011;6877;51.436;6.774;2023-06-04T07:48:10;4.00;;;2.10;;
13611;SDS011;6877;51.436;6.774;2023-06-04T07:50:42;6.50;;;2.53;;
13611;SDS011;6877;51.436;6.774;2023-06-04T07:53:13;7.70;;;1.90;;
13611;SDS011;6877;51.436;6.774;2023-06-04T07:55:45;2.65;;;1.98;;
13611;SDS011;6877;51.436;6.774;2023-06-04T07:58:13;5.43;;;2.17;;
13611;SDS011;6877;51.436;6.774;2023-06-04T08:00:39;5.45;;;2.10;;
13611;SDS011;6877;51.436;6.774;2023-06-04T08:03:11;2.60;;;1.90;;
13611;SDS011;6877;51.436;6.774;2023-06-04T08:05:38;7.18;;;2.00;;
13611;SDS011;6877;51.436;6.774;2023-06-04T08:08:04;4.07;;;2.40;;
13611;SDS011;6877;51.436;6.774;2023-06-04T08:10:31;2.33;;;2.05;;
13611;SDS011;6877;51.436;6.774;2023-06-04T08:13:03;4.70;;;1.92;;
13611;SDS011;6877;51.436;6.774;2023-06-04T08:15:29;2.78;;;1.88;;
13611;SDS011;6877;51.436;6.774;2023-06-04T08:17:55;5.30;;;1.65;;
13611;SDS011;6877;51.436;6.774;2023-06-04T08:20:24;2.88;;;2.00;;
13611;SDS011;6877;51.436;6.774;2023-06-04T08:22:56;7.28;;;2.03;;
13611;SDS011;6877;51.436;6.774;2023-06-04T08:25:25;3.88;;;2.30;;
13611;SDS011;6877;51.436;6.774;2023-06-04T08:27:51;3.92;;;2.33;;
13611;SDS011;6877;51.436;6.774;2023-06-04T08:30:18;3.47;;;1.98;;
13611;SDS011;6877;51.436;6.774;2023-06-04T08:32:45;4.85;;;1.83;;
13611;SDS011;6877;51.436;6.774;2023-06-04T08:35:11;5.47;;;1.52;;
13611;SDS011;6877;51.436;6.774;2023-06-04T08:37:38;3.38;;;2.30;;
13611;SDS011;6877;51.436;6.774;2023-06-04T08:40:06;4.82;;;1.77;;
13611;SDS011;6877;51.436;6.774;2023-06-04T08:42:41;7.70;;;1.92;;
13611;SDS011;6877;51.436;6.774;2023-06-04T08:45:11;3.25;;;1.90;;
13611;SDS011;6877;51.436;6.774;2023-06-04T08:47:48;5.00;;;1.85;;
13611;SDS011;6877;51.436;6.774;2023-06-04T08:50:23;4.60;;;2.25;;
13611;SDS011;6877;51.436;6.774;2023-06-04T08:52:55;2.17;;;1.85;;
13611;SDS011;6877;51.436;6.774;2023-06-04T08:55:27;3.58;;;1.80;;
13611;SDS011;6877;51.436;6.774;2023-06-04T08:57:54;6.30;;;1.67;;
13611;SDS011;6877;51.436;6.774;2023-06-04T09:00:20;2.58;;;1.42;;
13611;SDS011;6877;51.436;6.774;2023-06-04T09:02:49;5.38;;;1.80;;
13611;SDS011;6877;51.436;6.774;2023-06-04T09:05:19;2.10;;;1.45;;
13611;SDS011;6877;51.436;6.774;2023-06-04T09:07:54;2.28;;;1.55;;
13611;SDS011;6877;51.436;6.774;2023-06-04T09:10:28;3.00;;;1.60;;
13611;SDS011;6877;51.436;6.774;2023-06-04T09:13:01;3.47;;;2.13;;
13611;SDS011;6877;51.436;6.774;2023-06-04T09:15:29;3.20;;;1.73;;
13611;SDS011;6877;51.436;6.774;2023-06-04T09:17:55;2.17;;;1.45;;
13611;SDS011;6877;51.436;6.774;2023-06-04T09:20:22;6.75;;;1.85;;
13611;SDS011;6877;51.436;6.774;2023-06-04T09:22:50;3.53;;;1.70;;
13611;SDS011;6877;51.436;6.774;2023-06-04T09:25:20;1.55;;;1.45;;
13611;SDS011;6877;51.436;6.774;2023-06-04T09:27:48;2.85;;;1.50;;
13611;SDS011;6877;51.436;6.774;2023-06-04T09:30:21;1.63;;;1.25;;
13611;SDS011;6877;51.436;6.774;2023-06-04T09:32:49;2.05;;;1.30;;
13611;SDS011;6877;51.436;6.774;2023-06-04T09:35:16;1.70;;;1.30;;
13611;SDS011;6877;51.436;6.774;2023-06-04T09:37:53;4.70;;;1.60;;
13611;SDS011;6877;51.436;6.774;2023-06-04T09:40:21;4.00;;;1.73;;
13611;SDS011;6877;51.436;6.774;2023-06-04T09:42:49;2.90;;;1.70;;
13611;SDS011;6877;51.436;6.774;2023-06-04T09:45:29;4.50;;;1.83;;
13611;SDS011;6877;51.436;6.774;2023-06-04T09:47:58;3.22;;;1.60;;
13611;SDS011;6877;51.436;6.774;2023-06-04T09:50:26;4.20;;;1.77;;
13611;SDS011;6877;51.436;6.774;2023-06-04T09:52:53;6.68;;;2.00;;
13611;SDS011;6877;51.436;6.774;2023-06-04T09:55:20;2.22;;;1.73;;
13611;SDS011;6877;51.436;6.774;2023-06-04T09:57:53;5.00;;;1.75;;
13611;SDS011;6877;51.436;6.774;2023-06-04T10:00:20;6.43;;;2.17;;
13611;SDS011;6877;51.436;6.774;2023-06-04T10:02:58;2.00;;;1.77;;
13611;SDS011;6877;51.436;6.774;2023-06-04T10:05:31;2.65;;;1.80;;
13611;SDS011;6877;51.436;6.774;2023-06-04T10:08:01;3.83;;;2.05;;
13611;SDS011;6877;51.436;6.774;2023-06-04T10:10:38;3.45;;;1.52;;
13611;SDS011;6877;51.436;6.774;2023-06-04T10:13:07;3.97;;;1.23;;
13611;SDS011;6877;51.436;6.774;2023-06-04T10:15:41;7.75;;;1.50;;
13611;SDS011;6877;51.436;6.774;2023-06-04T10:18:08;6.82;;;1.67;;
13611;SDS011;6877;51.436;6.774;2023-06-04T10:20:42;3.28;;;1.52;;
13611;SDS011;6877;51.436;6.774;2023-06-04T10:23:13;2.42;;;1.90;;
13611;SDS011;6877;51.436;6.774;2023-06-04T10:25:46;4.93;;;2.00;;
13611;SDS011;6877;51.436;6.774;2023-06-04T10:28:20;5.43;;;1.92;;
13611;SDS011;6877;51.436;6.774;2023-06-04T10:30:49;2.80;;;2.33;;
13611;SDS011;6877;51.436;6.774;2023-06-04T10:33:17;2.53;;;2.00;;
13611;SDS011;6877;51.436;6.774;2023-06-04T10:35:46;3.75;;;1.83;;
13611;SDS011;6877;51.436;6.774;2023-06-04T10:38:13;3.38;;;2.03;;
13611;SDS011;6877;51.436;6.774;2023-06-04T10:40:40;2.28;;;1.88;;
13611;SDS011;6877;51.436;6.774;2023-06-04T10:43:10;2.70;;;1.90;;
13611;SDS011;6877;51.436;6.774;2023-06-04T10:45:38;2.53;;;1.95;;
13611;SDS011;6877;51.436;6.774;2023-06-04T10:48:05;2.17;;;1.83;;
13611;SDS011;6877;51.436;6.774;2023-06-04T10:50:33;4.82;;;1.55;;
13611;SDS011;6877;51.436;6.774;2023-06-04T10:53:06;5.80;;;2.15;;
13611;SDS011;6877;51.436;6.774;2023-06-04T10:55:32;3.25;;;1.95;;
13611;SDS011;6877;51.436;6.774;2023-06-04T10:58:09;4.30;;;1.90;;
13611;SDS011;6877;51.436;6.774;2023-06-04T11:03:09;2.95;;;1.70;;
13611;SDS011;6877;51.436;6.774;2023-06-04T11:05:37;1.67;;;1.42;;
13611;SDS011;6877;51.436;6.774;2023-06-04T11:08:05;3.15;;;1.90;;
13611;SDS011;6877;51.436;6.774;2023-06-04T11:10:33;2.33;;;1.92;;
13611;SDS011;6877;51.436;6.774;2023-06-04T11:13:01;4.03;;;1.80;;
13611;SDS011;6877;51.436;6.774;2023-06-04T11:15:44;3.88;;;1.80;;
13611;SDS011;6877;51.436;6.774;2023-06-04T11:18:13;3.65;;;2.10;;
13611;SDS011;6877;51.436;6.774;2023-06-04T11:20:41;5.63;;;2.90;;
13611;SDS011;6877;51.436;6.774;2023-06-04T11:23:08;4.15;;;2.47;;
13611;SDS011;6877;51.436;6.774;2023-06-04T11:25:39;3.72;;;2.20;;
13611;SDS011;6877;51.436;6.774;2023-06-04T11:28:17;7.28;;;2.75;;
13611;SDS011;6877;51.436;6.774;2023-06-04T11:30:44;2.75;;;2.50;;
13611;SDS011;6877;51.436;6.774;2023-06-04T11:33:22;8.60;;;6.72;;
13611;SDS011;6877;51.436;6.774;2023-06-04T11:35:53;3.75;;;2.95;;
13611;SDS011;6877;51.436;6.774;2023-06-04T11:38:20;5.22;;;2.67;;
13611;SDS011;6877;51.436;6.774;2023-06-04T11:40:56;2.85;;;2.58;;
13611;SDS011;6877;51.436;6.774;2023-06-04T11:43:24;4.82;;;2.30;;
13611;SDS011;6877;51.436;6.774;2023-06-04T11:45:56;8.10;;;3.42;;
13611;SDS011;6877;51.436;6.774;2023-06-04T11:48:22;10.57;;;2.88;;
13611;SDS011;6877;51.436;6.774;2023-06-04T11:50:49;6.68;;;2.95;;
13611;SDS011;6877;51.436;6.774;2023-06-04T11:53:16;6.10;;;3.08;;
13611;SDS011;6877;51.436;6.774;2023-06-04T11:55:47;3.70;;;2.83;;
13611;SDS011;6877;51.436;6.774;2023-06-04T11:58:14;10.45;;;3.35;;
13611;SDS011;6877;51.436;6.774;2023-06-04T12:00:41;6.90;;;2.40;;
13611;SDS011;6877;51.436;6.774;2023-06-04T12:03:08;5.43;;;2.78;;
13611;SDS011;6877;51.436;6.774;2023-06-04T12:05:34;6.53;;;3.20;;
13611;SDS011;6877;51.436;6.774;2023-06-04T12:08:05;10.43;;;3.15;;
13611;SDS011;6877;51.436;6.774;2023-06-04T12:10:36;6.07;;;3.30;;
13611;SDS011;6877;51.436;6.774;2023-06-04T12:13:06;8.57;;;3.13;;
13611;SDS011;6877;51.436;6.774;2023-06-04T12:15:38;3.92;;;2.83;;
13611;SDS011;6877;51.436;6.774;2023-06-04T12:18:05;3.35;;;2.50;;
13611;SDS011;6877;51.436;6.774;2023-06-04T12:20:36;3.38;;;2.72;;
13611;SDS011;6877;51.436;6.774;2023-06-04T12:23:04;5.40;;;2.67;;
13611;SDS011;6877;51.436;6.774;2023-06-04T12:25:32;3.45;;;2.45;;
13611;SDS011;6877;51.436;6.774;2023-06-04T12:28:05;3.13;;;2.80;;
13611;SDS011;6877;51.436;6.774;2023-06-04T12:30:38;5.00;;;2.92;;
13611;SDS011;6877;51.436;6.774;2023-06-04T12:33:11;2.55;;;2.33;;
13611;SDS011;6877;51.436;6.774;2023-06-04T12:35:38;4.88;;;2.30;;
13611;SDS011;6877;51.436;6.774;2023-06-04T12:38:04;5.18;;;2.88;;
13611;SDS011;6877;51.436;6.774;2023-06-04T12:40:31;3.80;;;2.60;;
13611;SDS011;6877;51.436;6.774;2023-06-04T12:42:58;3.83;;;3.25;;
13611;SDS011;6877;51.436;6.774;2023-06-04T12:45:24;3.22;;;2.85;;
13611;SDS011;6877;51.436;6.774;2023-06-04T12:47:50;5.78;;;3.13;;
13611;SDS011;6877;51.436;6.774;2023-06-04T12:50:22;4.22;;;3.22;;
13611;SDS011;6877;51.436;6.774;2023-06-04T12:52:48;4.78;;;3.08;;
13611;SDS011;6877;51.436;6.774;2023-06-04T12:55:15;5.35;;;3.88;;
13611;SDS011;6877;51.436;6.774;2023-06-04T12:57:42;8.60;;;2.80;;
13611;SDS011;6877;51.436;6.774;2023-06-04T13:00:10;3.83;;;3.13;;
13611;SDS011;6877;51.436;6.774;2023-06-04T13:02:37;5.85;;;3.28;;
13611;SDS011;6877;51.436;6.774;2023-06-04T13:05:04;3.83;;;2.85;;
13611;SDS011;6877;51.436;6.774;2023-06-04T13:07:30;6.28;;;3.20;;
13611;SDS011;6877;51.436;6.774;2023-06-04T13:09:57;5.70;;;3.03;;
13611;SDS011;6877;51.436;6.774;2023-06-04T13:12:23;7.72;;;3.85;;
13611;SDS011;6877;51.436;6.774;2023-06-04T13:14:50;6.00;;;3.50;;
13611;SDS011;6877;51.436;6.774;2023-06-04T13:17:16;3.53;;;3.17;;
13611;SDS011;6877;51.436;6.774;2023-06-04T13:19:43;5.75;;;3.33;;
13611;SDS011;6877;51.436;6.774;2023-06-04T13:22:14;4.30;;;3.10;;
13611;SDS011;6877;51.436;6.774;2023-06-04T13:24:41;8.07;;;3.25;;
13611;SDS011;6877;51.436;6.774;2023-06-04T13:27:12;6.00;;;3.50;;
13611;SDS011;6877;51.436;6.774;2023-06-04T13:29:39;5.28;;;3.22;;
13611;SDS011;6877;51.436;6.774;2023-06-04T13:32:05;4.38;;;3.40;;
13611;SDS011;6877;51.436;6.774;2023-06-04T13:34:37;4.07;;;3.15;;
13611;SDS011;6877;51.436;6.774;2023-06-04T13:37:03;5.38;;;3.53;;
13611;SDS011;6877;51.436;6.774;2023-06-04T13:39:30;3.67;;;2.85;;
13611;SDS011;6877;51.436;6.774;2023-06-04T13:41:56;4.47;;;3.30;;
13611;SDS011;6877;51.436;6.774;2023-06-04T13:44:23;5.15;;;3.10;;
13611;SDS011;6877;51.436;6.774;2023-06-04T13:46:52;3.97;;;3.25;;
13611;SDS011;6877;51.436;6.774;2023-06-04T13:49:19;5.25;;;3.30;;
13611;SDS011;6877;51.436;6.774;2023-06-04T13:51:46;10.95;;;3.30;;
13611;SDS011;6877;51.436;6.774;2023-06-04T13:54:13;3.60;;;3.03;;
13611;SDS011;6877;51.436;6.774;2023-06-04T13:56:39;4.30;;;2.90;;
13611;SDS011;6877;51.436;6.774;2023-06-04T13:59:06;4.00;;;2.92;;
13611;SDS011;6877;51.436;6.774;2023-06-04T14:01:37;5.90;;;2.92;;
13611;SDS011;6877;51.436;6.774;2023-06-04T14:04:06;4.78;;;3.03;;
13611;SDS011;6877;51.436;6.774;2023-06-04T14:06:34;7.40;;;3.00;;
13611;SDS011;6877;51.436;6.774;2023-06-04T14:09:02;4.68;;;3.00;;
13611;SDS011;6877;51.436;6.774;2023-06-04T14:11:28;10.88;;;4.00;;
13611;SDS011;6877;51.436;6.774;2023-06-04T14:13:55;6.18;;;3.15;;
13611;SDS011;6877;51.436;6.774;2023-06-04T14:16:22;5.03;;;3.50;;
13611;SDS011;6877;51.436;6.774;2023-06-04T14:18:48;3.67;;;3.38;;
13611;SDS011;6877;51.436;6.774;2023-06-04T14:21:20;3.67;;;2.83;;
13611;SDS011;6877;51.436;6.774;2023-06-04T14:23:47;3.17;;;2.65;;
13611;SDS011;6877;51.436;6.774;2023-06-04T14:26:15;4.07;;;3.30;;
13611;SDS011;6877;51.436;6.774;2023-06-04T14:28:44;4.13;;;2.80;;
13611;SDS011;6877;51.436;6.774;2023-06-04T14:31:10;6.93;;;3.63;;
13611;SDS011;6877;51.436;6.774;2023-06-04T14:33:37;4.13;;;2.85;;
13611;SDS011;6877;51.436;6.774;2023-06-04T14:36:04;6.68;;;2.75;;
13611;SDS011;6877;51.436;6.774;2023-06-04T14:38:30;3.13;;;2.83;;
13611;SDS011;6877;51.436;6.774;2023-06-04T14:41:02;3.38;;;2.55;;
13611;SDS011;6877;51.436;6.774;2023-06-04T14:43:28;4.07;;;2.95;;
13611;SDS011;6877;51.436;6.774;2023-06-04T14:46:00;8.15;;;2.97;;
13611;SDS011;6877;51.436;6.774;2023-06-04T14:48:26;3.92;;;2.35;;
13611;SDS011;6877;51.436;6.774;2023-06-04T14:50:53;4.07;;;2.70;;
13611;SDS011;6877;51.436;6.774;2023-06-04T14:53:22;3.33;;;2.60;;
13611;SDS011;6877;51.436;6.774;2023-06-04T14:55:48;5.07;;;3.17;;
13611;SDS011;6877;51.436;6.774;2023-06-04T14:58:15;7.50;;;3.17;;
13611;SDS011;6877;51.436;6.774;2023-06-04T15:00:42;2.83;;;2.40;;
13611;SDS011;6877;51.436;6.774;2023-06-04T15:03:09;5.55;;;2.45;;
13611;SDS011;6877;51.436;6.774;2023-06-04T15:05:35;4.22;;;2.83;;
13611;SDS011;6877;51.436;6.774;2023-06-04T15:08:07;4.10;;;2.70;;
13611;SDS011;6877;51.436;6.774;2023-06-04T15:10:34;6.00;;;3.10;;
13611;SDS011;6877;51.436;6.774;2023-06-04T15:13:01;5.97;;;2.85;;
13611;SDS011;6877;51.436;6.774;2023-06-04T15:15:32;3.85;;;2.40;;